sensor_id;sensor_type;location;lat;lon;timestamp;P1;durP1;ratioP1;P2;durP2;ratioP2
11735;SDS011;5924;51.398;7.088;2023-04-03T00:01:35;7.27;;;6.67;;
11735;SDS011;5924;51.398;7.088;2023-04-03T00:04:03;7.70;;;6.17;;
11735;SDS011;5924;51.398;7.088;2023-04-03T00:06:30;6.63;;;6.13;;
11735;SDS011;5924;51.398;7.088;2023-04-03T00:08:56;6.17;;;5.77;;
11735;SDS011;5924;51.398;7.088;2023-04-03T00:11:22;13.80;;;6.13;;
11735;SDS011;5924;51.398;7.088;2023-04-03T00:13:47;9.50;;;6.30;;
11735;SDS011;5924;51.398;7.088;2023-04-03T00:16:13;6.13;;;5.50;;
11735;SDS011;5924;51.398;7.088;2023-04-03T00:18:39;6.47;;;5.97;;
11735;SDS011;5924;51.398;7.088;2023-04-03T00:21:05;6.67;;;5.97;;
11735;SDS011;5924;51.398;7.088;2023-04-03T00:23:32;6.30;;;5.80;;
11735;SDS011;5924;51.398;7.088;2023-04-03T00:25:58;6.77;;;5.97;;
11735;SDS011;5924;51.398;7.088;2023-04-03T00:28:24;6.60;;;6.00;;
11735;SDS011;5924;51.398;7.088;2023-04-03T00:30:51;7.40;;;6.70;;
11735;SDS011;5924;51.398;7.088;2023-04-03T00:33:17;8.13;;;7.40;;
11735;SDS011;5924;51.398;7.088;2023-04-03T00:35:42;8.43;;;7.47;;
11735;SDS011;5924;51.398;7.088;2023-04-03T00:38:08;7.10;;;6.50;;
11735;SDS011;5924;51.398;7.088;2023-04-03T00:40:38;8.30;;;7.07;;
11735;SDS011;5924;51.398;7.088;2023-04-03T00:43:25;6.60;;;6.13;;
11735;SDS011;5924;51.398;7.088;2023-04-03T00:45:54;6.97;;;6.50;;
11735;SDS011;5924;51.398;7.088;2023-04-03T00:48:23;7.23;;;6.53;;
11735;SDS011;5924;51.398;7.088;2023-04-03T00:50:53;6.30;;;5.90;;
11735;SDS011;5924;51.398;7.088;2023-04-03T00:53:22;7.47;;;6.83;;
11735;SDS011;5924;51.398;7.088;2023-04-03T00:55:57;6.50;;;6.10;;
11735;SDS011;5924;51.398;7.088;2023-04-03T00:58:34;6.47;;;6.00;;
11735;SDS011;5924;51.398;7.088;2023-04-03T01:01:05;7.17;;;6.47;;
11735;SDS011;5924;51.398;7.088;2023-04-03T01:03:35;8.73;;;7.60;;
11735;SDS011;5924;51.398;7.088;2023-04-03T01:06:01;6.10;;;5.70;;
11735;SDS011;5924;51.398;7.088;2023-04-03T01:08:27;7.47;;;6.87;;
11735;SDS011;5924;51.398;7.088;2023-04-03T01:10:52;6.70;;;6.30;;
11735;SDS011;5924;51.398;7.088;2023-04-03T01:13:25;7.83;;;7.17;;
11735;SDS011;5924;51.398;7.088;2023-04-03T01:15:53;12.87;;;7.80;;
11735;SDS011;5924;51.398;7.088;2023-04-03T01:18:19;8.30;;;7.50;;
11735;SDS011;5924;51.398;7.088;2023-04-03T01:23:31;7.30;;;6.60;;
11735;SDS011;5924;51.398;7.088;2023-04-03T01:25:58;8.33;;;7.63;;
11735;SDS011;5924;51.398;7.088;2023-04-03T01:28:25;7.57;;;6.87;;
11735;SDS011;5924;51.398;7.088;2023-04-03T01:33:52;7.70;;;6.97;;
11735;SDS011;5924;51.398;7.088;2023-04-03T01:36:26;19.13;;;7.63;;
11735;SDS011;5924;51.398;7.088;2023-04-03T01:38:54;7.33;;;6.80;;
11735;SDS011;5924;51.398;7.088;2023-04-03T01:41:20;7.10;;;6.50;;
11735;SDS011;5924;51.398;7.088;2023-04-03T01:43:46;8.00;;;7.40;;
11735;SDS011;5924;51.398;7.088;2023-04-03T01:46:14;7.10;;;6.60;;
11735;SDS011;5924;51.398;7.088;2023-04-03T01:48:40;8.53;;;7.50;;
11735;SDS011;5924;51.398;7.088;2023-04-03T01:51:09;7.70;;;7.10;;
11735;SDS011;5924;51.398;7.088;2023-04-03T01:53:35;8.07;;;7.37;;
11735;SDS011;5924;51.398;7.088;2023-04-03T01:56:01;7.90;;;7.13;;
11735;SDS011;5924;51.398;7.088;2023-04-03T01:58:27;9.50;;;7.93;;
11735;SDS011;5924;51.398;7.088;2023-04-03T02:00:52;8.13;;;7.43;;
11735;SDS011;5924;51.398;7.088;2023-04-03T02:03:18;7.97;;;7.37;;
11735;SDS011;5924;51.398;7.088;2023-04-03T02:05:44;10.80;;;7.80;;
11735;SDS011;5924;51.398;7.088;2023-04-03T02:08:10;8.43;;;7.70;;
11735;SDS011;5924;51.398;7.088;2023-04-03T02:10:36;9.23;;;8.30;;
11735;SDS011;5924;51.398;7.088;2023-04-03T02:13:02;9.00;;;8.10;;
11735;SDS011;5924;51.398;7.088;2023-04-03T02:15:27;8.60;;;7.77;;
11735;SDS011;5924;51.398;7.088;2023-04-03T02:17:53;10.90;;;7.50;;
11735;SDS011;5924;51.398;7.088;2023-04-03T02:20:19;8.57;;;7.67;;
11735;SDS011;5924;51.398;7.088;2023-04-03T02:22:45;7.53;;;6.90;;
11735;SDS011;5924;51.398;7.088;2023-04-03T02:25:11;7.83;;;7.07;;
11735;SDS011;5924;51.398;7.088;2023-04-03T02:27:37;8.10;;;7.30;;
11735;SDS011;5924;51.398;7.088;2023-04-03T02:30:03;9.80;;;7.30;;
11735;SDS011;5924;51.398;7.088;2023-04-03T02:32:30;7.87;;;7.17;;
11735;SDS011;5924;51.398;7.088;2023-04-03T02:34:56;9.00;;;6.70;;
11735;SDS011;5924;51.398;7.088;2023-04-03T02:37:21;10.93;;;6.90;;
11735;SDS011;5924;51.398;7.088;2023-04-03T02:39:47;8.03;;;7.20;;
11735;SDS011;5924;51.398;7.088;2023-04-03T02:42:13;7.97;;;7.20;;
11735;SDS011;5924;51.398;7.088;2023-04-03T02:44:39;10.13;;;8.30;;
11735;SDS011;5924;51.398;7.088;2023-04-03T02:47:05;8.50;;;7.70;;
11735;SDS011;5924;51.398;7.088;2023-04-03T02:49:30;19.37;;;10.60;;
11735;SDS011;5924;51.398;7.088;2023-04-03T02:51:56;28.47;;;11.63;;
11735;SDS011;5924;51.398;7.088;2023-04-03T02:54:22;28.77;;;12.20;;
11735;SDS011;5924;51.398;7.088;2023-04-03T02:56:49;19.83;;;10.53;;
11735;SDS011;5924;51.398;7.088;2023-04-03T02:59:15;30.37;;;12.63;;
11735;SDS011;5924;51.398;7.088;2023-04-03T03:01:41;24.03;;;10.27;;
11735;SDS011;5924;51.398;7.088;2023-04-03T03:04:07;16.13;;;10.13;;
11735;SDS011;5924;51.398;7.088;2023-04-03T03:06:32;12.23;;;9.23;;
11735;SDS011;5924;51.398;7.088;2023-04-03T03:08:58;10.60;;;8.97;;
11735;SDS011;5924;51.398;7.088;2023-04-03T03:11:24;10.50;;;8.50;;
11735;SDS011;5924;51.398;7.088;2023-04-03T03:13:50;10.43;;;6.70;;
11735;SDS011;5924;51.398;7.088;2023-04-03T03:16:16;8.20;;;7.40;;
11735;SDS011;5924;51.398;7.088;2023-04-03T03:18:41;7.90;;;6.27;;
11735;SDS011;5924;51.398;7.088;2023-04-03T03:21:08;11.00;;;6.90;;
11735;SDS011;5924;51.398;7.088;2023-04-03T03:23:35;8.27;;;6.63;;
11735;SDS011;5924;51.398;7.088;2023-04-03T03:26:01;10.43;;;5.77;;
11735;SDS011;5924;51.398;7.088;2023-04-03T03:28:29;7.83;;;6.50;;
11735;SDS011;5924;51.398;7.088;2023-04-03T03:30:56;7.30;;;6.60;;
11735;SDS011;5924;51.398;7.088;2023-04-03T03:33:22;9.10;;;6.63;;
11735;SDS011;5924;51.398;7.088;2023-04-03T03:35:48;8.07;;;7.10;;
11735;SDS011;5924;51.398;7.088;2023-04-03T03:38:14;8.50;;;6.50;;
11735;SDS011;5924;51.398;7.088;2023-04-03T03:40:40;8.23;;;6.30;;
11735;SDS011;5924;51.398;7.088;2023-04-03T03:43:06;6.17;;;5.57;;
11735;SDS011;5924;51.398;7.088;2023-04-03T03:45:31;6.60;;;6.13;;
11735;SDS011;5924;51.398;7.088;2023-04-03T03:47:57;6.07;;;5.47;;
11735;SDS011;5924;51.398;7.088;2023-04-03T03:50:23;6.87;;;6.00;;
11735;SDS011;5924;51.398;7.088;2023-04-03T03:52:48;6.10;;;5.50;;
11735;SDS011;5924;51.398;7.088;2023-04-03T03:55:14;11.20;;;5.27;;
11735;SDS011;5924;51.398;7.088;2023-04-03T03:57:40;5.40;;;4.90;;
11735;SDS011;5924;51.398;7.088;2023-04-03T04:00:06;7.97;;;5.30;;
11735;SDS011;5924;51.398;7.088;2023-04-03T04:02:32;10.73;;;5.67;;
11735;SDS011;5924;51.398;7.088;2023-04-03T04:04:58;5.57;;;5.17;;
11735;SDS011;5924;51.398;7.088;2023-04-03T04:07:23;6.33;;;5.73;;
11735;SDS011;5924;51.398;7.088;2023-04-03T04:09:49;9.53;;;5.70;;
11735;SDS011;5924;51.398;7.088;2023-04-03T04:12:15;8.13;;;4.87;;
11735;SDS011;5924;51.398;7.088;2023-04-03T04:14:40;5.00;;;4.70;;
11735;SDS011;5924;51.398;7.088;2023-04-03T04:17:06;6.57;;;4.90;;
11735;SDS011;5924;51.398;7.088;2023-04-03T04:19:32;4.67;;;4.40;;
11735;SDS011;5924;51.398;7.088;2023-04-03T04:21:58;5.03;;;4.40;;
11735;SDS011;5924;51.398;7.088;2023-04-03T04:24:23;5.53;;;4.97;;
11735;SDS011;5924;51.398;7.088;2023-04-03T04:26:49;4.50;;;4.20;;
11735;SDS011;5924;51.398;7.088;2023-04-03T04:29:15;4.37;;;4.10;;
11735;SDS011;5924;51.398;7.088;2023-04-03T04:31:40;7.93;;;4.67;;
11735;SDS011;5924;51.398;7.088;2023-04-03T04:34:06;7.73;;;5.20;;
11735;SDS011;5924;51.398;7.088;2023-04-03T04:36:32;7.33;;;4.47;;
11735;SDS011;5924;51.398;7.088;2023-04-03T04:38:58;6.00;;;4.37;;
11735;SDS011;5924;51.398;7.088;2023-04-03T04:41:23;7.10;;;4.00;;
11735;SDS011;5924;51.398;7.088;2023-04-03T04:43:50;9.47;;;4.13;;
11735;SDS011;5924;51.398;7.088;2023-04-03T04:46:16;5.07;;;4.30;;
11735;SDS011;5924;51.398;7.088;2023-04-03T04:48:42;10.90;;;4.50;;
11735;SDS011;5924;51.398;7.088;2023-04-03T04:51:08;6.20;;;3.83;;
11735;SDS011;5924;51.398;7.088;2023-04-03T04:53:34;9.17;;;4.17;;
11735;SDS011;5924;51.398;7.088;2023-04-03T04:56:00;4.60;;;4.03;;
11735;SDS011;5924;51.398;7.088;2023-04-03T04:58:26;4.63;;;3.37;;
11735;SDS011;5924;51.398;7.088;2023-04-03T05:00:59;8.13;;;4.67;;
11735;SDS011;5924;51.398;7.088;2023-04-03T05:03:25;6.43;;;4.40;;
11735;SDS011;5924;51.398;7.088;2023-04-03T05:05:51;7.43;;;3.23;;
11735;SDS011;5924;51.398;7.088;2023-04-03T05:08:16;4.27;;;3.63;;
11735;SDS011;5924;51.398;7.088;2023-04-03T05:10:42;7.60;;;3.23;;
11735;SDS011;5924;51.398;7.088;2023-04-03T05:13:09;3.87;;;3.40;;
11735;SDS011;5924;51.398;7.088;2023-04-03T05:15:35;3.77;;;3.47;;
11735;SDS011;5924;51.398;7.088;2023-04-03T05:18:00;7.80;;;5.07;;
11735;SDS011;5924;51.398;7.088;2023-04-03T05:20:26;9.10;;;3.53;;
11735;SDS011;5924;51.398;7.088;2023-04-03T05:22:51;11.23;;;3.90;;
11735;SDS011;5924;51.398;7.088;2023-04-03T05:25:17;6.20;;;3.20;;
11735;SDS011;5924;51.398;7.088;2023-04-03T05:27:43;7.13;;;3.27;;
11735;SDS011;5924;51.398;7.088;2023-04-03T05:30:08;8.63;;;3.10;;
11735;SDS011;5924;51.398;7.088;2023-04-03T05:32:35;6.87;;;3.07;;
11735;SDS011;5924;51.398;7.088;2023-04-03T05:35:00;6.67;;;3.80;;
11735;SDS011;5924;51.398;7.088;2023-04-03T05:37:26;5.47;;;3.27;;
11735;SDS011;5924;51.398;7.088;2023-04-03T05:39:51;9.73;;;3.93;;
11735;SDS011;5924;51.398;7.088;2023-04-03T05:42:17;4.70;;;3.53;;
11735;SDS011;5924;51.398;7.088;2023-04-03T05:44:43;3.10;;;2.80;;
11735;SDS011;5924;51.398;7.088;2023-04-03T05:47:11;11.33;;;3.93;;
11735;SDS011;5924;51.398;7.088;2023-04-03T05:49:36;5.97;;;3.37;;
11735;SDS011;5924;51.398;7.088;2023-04-03T05:52:05;8.27;;;3.00;;
11735;SDS011;5924;51.398;7.088;2023-04-03T05:54:37;6.67;;;3.40;;
11735;SDS011;5924;51.398;7.088;2023-04-03T05:57:03;4.50;;;2.97;;
11735;SDS011;5924;51.398;7.088;2023-04-03T05:59:28;4.63;;;2.90;;
11735;SDS011;5924;51.398;7.088;2023-04-03T06:01:54;5.87;;;3.67;;
11735;SDS011;5924;51.398;7.088;2023-04-03T06:04:20;3.33;;;2.93;;
11735;SDS011;5924;51.398;7.088;2023-04-03T06:06:56;4.23;;;3.07;;
11735;SDS011;5924;51.398;7.088;2023-04-03T06:09:23;4.20;;;3.87;;
11735;SDS011;5924;51.398;7.088;2023-04-03T06:11:51;6.37;;;3.83;;
11735;SDS011;5924;51.398;7.088;2023-04-03T06:14:17;4.93;;;3.30;;
11735;SDS011;5924;51.398;7.088;2023-04-03T06:16:43;4.20;;;3.87;;
11735;SDS011;5924;51.398;7.088;2023-04-03T06:19:10;5.10;;;4.50;;
11735;SDS011;5924;51.398;7.088;2023-04-03T06:21:36;10.97;;;4.10;;
11735;SDS011;5924;51.398;7.088;2023-04-03T06:24:03;5.17;;;3.00;;
11735;SDS011;5924;51.398;7.088;2023-04-03T06:26:30;8.23;;;4.03;;
11735;SDS011;5924;51.398;7.088;2023-04-03T06:28:57;9.87;;;3.60;;
11735;SDS011;5924;51.398;7.088;2023-04-03T06:31:23;19.77;;;4.40;;
11735;SDS011;5924;51.398;7.088;2023-04-03T06:33:48;10.80;;;4.90;;
11735;SDS011;5924;51.398;7.088;2023-04-03T06:36:14;12.27;;;4.57;;
11735;SDS011;5924;51.398;7.088;2023-04-03T06:38:44;10.23;;;4.27;;
11735;SDS011;5924;51.398;7.088;2023-04-03T06:41:10;8.50;;;4.43;;
11735;SDS011;5924;51.398;7.088;2023-04-03T06:43:36;15.13;;;4.53;;
11735;SDS011;5924;51.398;7.088;2023-04-03T06:46:02;10.63;;;4.57;;
11735;SDS011;5924;51.398;7.088;2023-04-03T06:48:28;4.73;;;3.90;;
11735;SDS011;5924;51.398;7.088;2023-04-03T06:50:54;21.27;;;5.83;;
11735;SDS011;5924;51.398;7.088;2023-04-03T06:53:20;7.50;;;4.13;;
11735;SDS011;5924;51.398;7.088;2023-04-03T06:55:46;5.80;;;3.90;;
11735;SDS011;5924;51.398;7.088;2023-04-03T06:58:12;8.17;;;4.57;;
11735;SDS011;5924;51.398;7.088;2023-04-03T07:00:38;11.33;;;4.33;;
11735;SDS011;5924;51.398;7.088;2023-04-03T07:03:04;9.10;;;3.97;;
11735;SDS011;5924;51.398;7.088;2023-04-03T07:05:30;9.30;;;4.07;;
11735;SDS011;5924;51.398;7.088;2023-04-03T07:07:56;5.93;;;3.97;;
11735;SDS011;5924;51.398;7.088;2023-04-03T07:10:22;4.20;;;2.63;;
11735;SDS011;5924;51.398;7.088;2023-04-03T07:12:48;5.90;;;2.80;;
11735;SDS011;5924;51.398;7.088;2023-04-03T07:15:14;5.80;;;3.17;;
11735;SDS011;5924;51.398;7.088;2023-04-03T07:17:40;7.70;;;3.30;;
11735;SDS011;5924;51.398;7.088;2023-04-03T07:20:06;6.27;;;3.10;;
11735;SDS011;5924;51.398;7.088;2023-04-03T07:22:33;3.13;;;2.47;;
11735;SDS011;5924;51.398;7.088;2023-04-03T07:24:58;2.77;;;2.53;;
11735;SDS011;5924;51.398;7.088;2023-04-03T07:27:25;4.73;;;2.33;;
11735;SDS011;5924;51.398;7.088;2023-04-03T07:29:50;3.80;;;2.30;;
11735;SDS011;5924;51.398;7.088;2023-04-03T07:32:16;2.50;;;2.30;;
11735;SDS011;5924;51.398;7.088;2023-04-03T07:34:42;3.13;;;2.20;;
11735;SDS011;5924;51.398;7.088;2023-04-03T07:37:08;2.30;;;2.20;;
11735;SDS011;5924;51.398;7.088;2023-04-03T07:39:34;4.80;;;2.50;;
11735;SDS011;5924;51.398;7.088;2023-04-03T07:42:00;1.80;;;1.70;;
11735;SDS011;5924;51.398;7.088;2023-04-03T07:44:26;2.93;;;2.70;;
11735;SDS011;5924;51.398;7.088;2023-04-03T07:46:53;11.63;;;2.70;;
11735;SDS011;5924;51.398;7.088;2023-04-03T07:49:21;2.77;;;2.50;;
11735;SDS011;5924;51.398;7.088;2023-04-03T07:51:49;3.43;;;2.07;;
11735;SDS011;5924;51.398;7.088;2023-04-03T07:54:15;3.63;;;2.00;;
11735;SDS011;5924;51.398;7.088;2023-04-03T07:56:40;2.77;;;2.13;;
11735;SDS011;5924;51.398;7.088;2023-04-03T07:59:08;6.63;;;2.07;;
11735;SDS011;5924;51.398;7.088;2023-04-03T08:01:34;4.20;;;2.20;;
11735;SDS011;5924;51.398;7.088;2023-04-03T08:04:00;3.13;;;1.83;;
11735;SDS011;5924;51.398;7.088;2023-04-03T08:06:26;3.50;;;1.93;;
11735;SDS011;5924;51.398;7.088;2023-04-03T08:08:52;2.50;;;1.90;;
11735;SDS011;5924;51.398;7.088;2023-04-03T08:11:17;6.67;;;2.30;;
11735;SDS011;5924;51.398;7.088;2023-04-03T08:13:44;3.50;;;1.50;;
11735;SDS011;5924;51.398;7.088;2023-04-03T08:16:15;5.17;;;2.00;;
11735;SDS011;5924;51.398;7.088;2023-04-03T08:18:43;1.97;;;1.77;;
11735;SDS011;5924;51.398;7.088;2023-04-03T08:21:09;6.53;;;1.57;;
11735;SDS011;5924;51.398;7.088;2023-04-03T08:23:36;6.83;;;1.63;;
11735;SDS011;5924;51.398;7.088;2023-04-03T08:26:21;2.10;;;1.90;;
11735;SDS011;5924;51.398;7.088;2023-04-03T08:28:47;3.33;;;1.93;;
11735;SDS011;5924;51.398;7.088;2023-04-03T08:31:14;9.67;;;2.00;;
11735;SDS011;5924;51.398;7.088;2023-04-03T08:33:43;4.03;;;1.73;;
11735;SDS011;5924;51.398;7.088;2023-04-03T08:36:17;1.70;;;1.47;;
11735;SDS011;5924;51.398;7.088;2023-04-03T08:38:48;3.50;;;1.80;;
11735;SDS011;5924;51.398;7.088;2023-04-03T08:44:09;3.30;;;1.40;;
11735;SDS011;5924;51.398;7.088;2023-04-03T08:53:01;3.70;;;1.90;;
11735;SDS011;5924;51.398;7.088;2023-04-03T08:55:33;3.47;;;1.67;;
11735;SDS011;5924;51.398;7.088;2023-04-03T08:58:05;5.20;;;1.77;;
11735;SDS011;5924;51.398;7.088;2023-04-03T09:03:28;2.47;;;1.27;;
11735;SDS011;5924;51.398;7.088;2023-04-03T09:05:57;2.43;;;1.47;;
11735;SDS011;5924;51.398;7.088;2023-04-03T09:08:31;6.77;;;1.47;;
11735;SDS011;5924;51.398;7.088;2023-04-03T09:24:57;1.10;;;1.10;;
11735;SDS011;5924;51.398;7.088;2023-04-03T09:27:34;3.33;;;1.47;;
11735;SDS011;5924;51.398;7.088;2023-04-03T09:29:59;3.67;;;1.20;;
11735;SDS011;5924;51.398;7.088;2023-04-03T09:32:29;2.17;;;1.20;;
11735;SDS011;5924;51.398;7.088;2023-04-03T09:34:57;1.40;;;1.40;;
11735;SDS011;5924;51.398;7.088;2023-04-03T09:40:02;7.30;;;2.40;;
11735;SDS011;5924;51.398;7.088;2023-04-03T09:42:29;1.10;;;1.10;;
11735;SDS011;5924;51.398;7.088;2023-04-03T09:45:00;3.67;;;1.23;;
11735;SDS011;5924;51.398;7.088;2023-04-03T09:47:31;1.30;;;1.30;;
11735;SDS011;5924;51.398;7.088;2023-04-03T09:52:39;1.43;;;1.40;;
11735;SDS011;5924;51.398;7.088;2023-04-03T09:55:17;5.10;;;1.20;;
11735;SDS011;5924;51.398;7.088;2023-04-03T09:57:46;1.30;;;0.90;;
11735;SDS011;5924;51.398;7.088;2023-04-03T10:00:27;1.63;;;1.53;;
11735;SDS011;5924;51.398;7.088;2023-04-03T10:03:00;1.23;;;1.20;;
11735;SDS011;5924;51.398;7.088;2023-04-03T10:05:31;3.27;;;1.20;;
11735;SDS011;5924;51.398;7.088;2023-04-03T10:08:20;3.30;;;1.27;;
11735;SDS011;5924;51.398;7.088;2023-04-03T10:11:04;0.93;;;0.93;;
11735;SDS011;5924;51.398;7.088;2023-04-03T10:13:31;1.10;;;1.10;;
11735;SDS011;5924;51.398;7.088;2023-04-03T10:16:04;1.40;;;0.90;;
11735;SDS011;5924;51.398;7.088;2023-04-03T10:24:14;1.47;;;0.93;;
11735;SDS011;5924;51.398;7.088;2023-04-03T10:42:33;2.33;;;2.13;;
11735;SDS011;5924;51.398;7.088;2023-04-03T10:45:24;1.13;;;1.13;;
11735;SDS011;5924;51.398;7.088;2023-04-03T10:48:43;2.00;;;1.87;;
11735;SDS011;5924;51.398;7.088;2023-04-03T10:53:48;1.87;;;1.77;;
11735;SDS011;5924;51.398;7.088;2023-04-03T10:56:31;3.27;;;1.57;;
11735;SDS011;5924;51.398;7.088;2023-04-03T11:01:39;4.43;;;1.30;;
11735;SDS011;5924;51.398;7.088;2023-04-03T11:04:07;1.40;;;1.40;;
11735;SDS011;5924;51.398;7.088;2023-04-03T11:06:39;1.13;;;1.13;;
11735;SDS011;5924;51.398;7.088;2023-04-03T11:15:16;0.97;;;0.97;;
11735;SDS011;5924;51.398;7.088;2023-04-03T11:17:55;1.37;;;1.07;;
11735;SDS011;5924;51.398;7.088;2023-04-03T11:20:31;3.43;;;1.33;;
11735;SDS011;5924;51.398;7.088;2023-04-03T11:23:03;1.00;;;1.00;;
11735;SDS011;5924;51.398;7.088;2023-04-03T11:25:41;3.97;;;1.50;;
11735;SDS011;5924;51.398;7.088;2023-04-03T11:28:14;3.23;;;1.37;;
11735;SDS011;5924;51.398;7.088;2023-04-03T11:30:49;1.20;;;1.20;;
11735;SDS011;5924;51.398;7.088;2023-04-03T11:36:05;1.20;;;1.20;;
11735;SDS011;5924;51.398;7.088;2023-04-03T11:38:43;1.53;;;0.97;;
11735;SDS011;5924;51.398;7.088;2023-04-03T11:41:11;1.50;;;0.90;;
11735;SDS011;5924;51.398;7.088;2023-04-03T11:43:40;0.73;;;0.73;;
11735;SDS011;5924;51.398;7.088;2023-04-03T11:46:08;0.87;;;0.87;;
11735;SDS011;5924;51.398;7.088;2023-04-03T11:53:38;0.70;;;0.70;;
11735;SDS011;5924;51.398;7.088;2023-04-03T12:01:43;1.60;;;1.50;;
11735;SDS011;5924;51.398;7.088;2023-04-03T12:04:11;1.30;;;1.20;;
11735;SDS011;5924;51.398;7.088;2023-04-03T12:11:51;2.30;;;1.10;;
11735;SDS011;5924;51.398;7.088;2023-04-03T12:14:17;0.90;;;0.90;;
11735;SDS011;5924;51.398;7.088;2023-04-03T12:16:44;0.87;;;0.87;;
11735;SDS011;5924;51.398;7.088;2023-04-03T12:29:27;1.00;;;0.90;;
11735;SDS011;5924;51.398;7.088;2023-04-03T12:37:38;0.93;;;0.83;;
11735;SDS011;5924;51.398;7.088;2023-04-03T12:43:09;2.07;;;1.10;;
11735;SDS011;5924;51.398;7.088;2023-04-03T12:48:38;2.17;;;1.30;;
11735;SDS011;5924;51.398;7.088;2023-04-03T12:51:24;1.20;;;1.20;;
11735;SDS011;5924;51.398;7.088;2023-04-03T12:53:52;1.70;;;1.60;;
11735;SDS011;5924;51.398;7.088;2023-04-03T12:56:29;2.33;;;1.10;;
11735;SDS011;5924;51.398;7.088;2023-04-03T12:59:12;1.17;;;1.17;;
11735;SDS011;5924;51.398;7.088;2023-04-03T13:01:40;1.83;;;1.10;;
11735;SDS011;5924;51.398;7.088;2023-04-03T13:04:05;1.70;;;1.20;;
11735;SDS011;5924;51.398;7.088;2023-04-03T13:06:34;1.67;;;1.20;;
11735;SDS011;5924;51.398;7.088;2023-04-03T13:09:21;1.70;;;1.60;;
11735;SDS011;5924;51.398;7.088;2023-04-03T13:11:52;1.47;;;1.20;;
11735;SDS011;5924;51.398;7.088;2023-04-03T13:14:28;2.33;;;1.30;;
11735;SDS011;5924;51.398;7.088;2023-04-03T13:16:59;1.50;;;1.50;;
11735;SDS011;5924;51.398;7.088;2023-04-03T13:19:29;1.30;;;1.20;;
11735;SDS011;5924;51.398;7.088;2023-04-03T13:21:59;2.20;;;1.37;;
11735;SDS011;5924;51.398;7.088;2023-04-03T13:24:29;1.53;;;1.23;;
11735;SDS011;5924;51.398;7.088;2023-04-03T13:27:00;1.23;;;1.13;;
11735;SDS011;5924;51.398;7.088;2023-04-03T13:29:31;1.17;;;1.17;;
11735;SDS011;5924;51.398;7.088;2023-04-03T13:31:59;1.97;;;1.87;;
11735;SDS011;5924;51.398;7.088;2023-04-03T13:34:35;1.97;;;1.23;;
11735;SDS011;5924;51.398;7.088;2023-04-03T13:37:05;1.80;;;1.20;;
11735;SDS011;5924;51.398;7.088;2023-04-03T13:39:37;0.90;;;0.90;;
11735;SDS011;5924;51.398;7.088;2023-04-03T13:42:26;2.37;;;0.97;;
11735;SDS011;5924;51.398;7.088;2023-04-03T13:47:45;1.30;;;1.30;;
11735;SDS011;5924;51.398;7.088;2023-04-03T13:52:42;3.50;;;1.30;;
11735;SDS011;5924;51.398;7.088;2023-04-03T13:55:33;1.30;;;1.20;;
11735;SDS011;5924;51.398;7.088;2023-04-03T13:58:22;2.60;;;1.23;;
11735;SDS011;5924;51.398;7.088;2023-04-03T14:03:51;1.70;;;1.13;;
11735;SDS011;5924;51.398;7.088;2023-04-03T14:06:19;2.70;;;1.07;;
11735;SDS011;5924;51.398;7.088;2023-04-03T14:08:45;1.07;;;1.00;;
11735;SDS011;5924;51.398;7.088;2023-04-03T14:11:14;1.10;;;1.10;;
11735;SDS011;5924;51.398;7.088;2023-04-03T14:13:47;1.33;;;1.23;;
11735;SDS011;5924;51.398;7.088;2023-04-03T14:16:21;1.93;;;1.30;;
11735;SDS011;5924;51.398;7.088;2023-04-03T14:18:50;1.67;;;1.40;;
11735;SDS011;5924;51.398;7.088;2023-04-03T14:21:17;1.67;;;1.47;;
11735;SDS011;5924;51.398;7.088;2023-04-03T14:23:45;6.10;;;1.83;;
11735;SDS011;5924;51.398;7.088;2023-04-03T14:26:15;2.80;;;1.30;;
11735;SDS011;5924;51.398;7.088;2023-04-03T14:28:46;1.10;;;1.00;;
11735;SDS011;5924;51.398;7.088;2023-04-03T14:31:14;2.90;;;1.27;;
11735;SDS011;5924;51.398;7.088;2023-04-03T14:33:40;2.93;;;1.20;;
11735;SDS011;5924;51.398;7.088;2023-04-03T14:36:13;1.40;;;1.30;;
11735;SDS011;5924;51.398;7.088;2023-04-03T14:38:45;2.50;;;0.90;;
11735;SDS011;5924;51.398;7.088;2023-04-03T14:41:15;3.37;;;1.30;;
11735;SDS011;5924;51.398;7.088;2023-04-03T14:43:44;1.10;;;1.10;;
11735;SDS011;5924;51.398;7.088;2023-04-03T14:48:56;1.33;;;1.17;;
11735;SDS011;5924;51.398;7.088;2023-04-03T14:51:22;1.33;;;1.33;;
11735;SDS011;5924;51.398;7.088;2023-04-03T14:53:48;1.20;;;1.10;;
11735;SDS011;5924;51.398;7.088;2023-04-03T14:56:16;1.93;;;1.37;;
11735;SDS011;5924;51.398;7.088;2023-04-03T14:58:59;1.80;;;1.23;;
11735;SDS011;5924;51.398;7.088;2023-04-03T15:01:26;1.83;;;1.20;;
11735;SDS011;5924;51.398;7.088;2023-04-03T15:03:53;2.40;;;1.20;;
11735;SDS011;5924;51.398;7.088;2023-04-03T15:06:19;1.50;;;1.50;;
11735;SDS011;5924;51.398;7.088;2023-04-03T15:08:45;2.40;;;1.40;;
11735;SDS011;5924;51.398;7.088;2023-04-03T15:11:12;1.87;;;1.10;;
11735;SDS011;5924;51.398;7.088;2023-04-03T15:13:39;2.37;;;1.07;;
11735;SDS011;5924;51.398;7.088;2023-04-03T15:16:23;1.37;;;1.27;;
11735;SDS011;5924;51.398;7.088;2023-04-03T15:18:48;2.40;;;1.37;;
11735;SDS011;5924;51.398;7.088;2023-04-03T15:21:14;2.73;;;1.07;;
11735;SDS011;5924;51.398;7.088;2023-04-03T15:23:40;1.00;;;0.90;;
11735;SDS011;5924;51.398;7.088;2023-04-03T15:26:06;1.20;;;1.00;;
11735;SDS011;5924;51.398;7.088;2023-04-03T15:28:33;1.80;;;1.17;;
11735;SDS011;5924;51.398;7.088;2023-04-03T15:31:02;5.63;;;2.00;;
11735;SDS011;5924;51.398;7.088;2023-04-03T15:33:29;1.47;;;1.23;;
11735;SDS011;5924;51.398;7.088;2023-04-03T15:35:55;1.17;;;1.10;;
11735;SDS011;5924;51.398;7.088;2023-04-03T15:38:21;2.90;;;1.80;;
11735;SDS011;5924;51.398;7.088;2023-04-03T15:40:47;1.47;;;1.37;;
11735;SDS011;5924;51.398;7.088;2023-04-03T15:43:13;1.40;;;1.40;;
11735;SDS011;5924;51.398;7.088;2023-04-03T15:45:40;1.43;;;1.33;;
11735;SDS011;5924;51.398;7.088;2023-04-03T15:48:06;1.33;;;1.23;;
11735;SDS011;5924;51.398;7.088;2023-04-03T15:50:33;3.50;;;1.60;;
11735;SDS011;5924;51.398;7.088;2023-04-03T15:53:00;1.37;;;1.20;;
11735;SDS011;5924;51.398;7.088;2023-04-03T15:55:28;1.73;;;1.63;;
11735;SDS011;5924;51.398;7.088;2023-04-03T15:57:55;4.40;;;1.50;;
11735;SDS011;5924;51.398;7.088;2023-04-03T16:00:21;1.70;;;1.60;;
11735;SDS011;5924;51.398;7.088;2023-04-03T16:02:48;1.07;;;1.07;;
11735;SDS011;5924;51.398;7.088;2023-04-03T16:05:18;2.13;;;1.60;;
11735;SDS011;5924;51.398;7.088;2023-04-03T16:07:44;3.93;;;1.37;;
11735;SDS011;5924;51.398;7.088;2023-04-03T16:10:11;1.47;;;1.20;;
11735;SDS011;5924;51.398;7.088;2023-04-03T16:12:38;1.60;;;1.50;;
11735;SDS011;5924;51.398;7.088;2023-04-03T16:15:04;1.47;;;1.37;;
11735;SDS011;5924;51.398;7.088;2023-04-03T16:17:31;1.73;;;1.20;;
11735;SDS011;5924;51.398;7.088;2023-04-03T16:19:58;1.57;;;1.37;;
11735;SDS011;5924;51.398;7.088;2023-04-03T16:22:26;1.93;;;1.70;;
11735;SDS011;5924;51.398;7.088;2023-04-03T16:24:53;1.50;;;1.50;;
11735;SDS011;5924;51.398;7.088;2023-04-03T16:27:19;1.50;;;1.50;;
11735;SDS011;5924;51.398;7.088;2023-04-03T16:29:45;1.93;;;1.13;;
11735;SDS011;5924;51.398;7.088;2023-04-03T16:32:11;1.50;;;1.50;;
11735;SDS011;5924;51.398;7.088;2023-04-03T16:34:37;2.83;;;1.60;;
11735;SDS011;5924;51.398;7.088;2023-04-03T16:37:05;2.63;;;1.87;;
11735;SDS011;5924;51.398;7.088;2023-04-03T16:39:33;1.90;;;1.80;;
11735;SDS011;5924;51.398;7.088;2023-04-03T16:41:59;2.03;;;1.20;;
11735;SDS011;5924;51.398;7.088;2023-04-03T16:44:25;1.80;;;1.60;;
11735;SDS011;5924;51.398;7.088;2023-04-03T16:46:51;2.00;;;1.40;;
11735;SDS011;5924;51.398;7.088;2023-04-03T16:49:17;2.00;;;2.00;;
11735;SDS011;5924;51.398;7.088;2023-04-03T16:51:42;1.90;;;1.80;;
11735;SDS011;5924;51.398;7.088;2023-04-03T16:54:08;2.10;;;2.00;;
11735;SDS011;5924;51.398;7.088;2023-04-03T16:56:36;2.50;;;1.50;;
11735;SDS011;5924;51.398;7.088;2023-04-03T16:59:02;4.70;;;1.63;;
11735;SDS011;5924;51.398;7.088;2023-04-03T17:01:27;3.00;;;1.80;;
11735;SDS011;5924;51.398;7.088;2023-04-03T17:03:53;2.07;;;1.70;;
11735;SDS011;5924;51.398;7.088;2023-04-03T17:06:19;1.73;;;1.53;;
11735;SDS011;5924;51.398;7.088;2023-04-03T17:08:47;1.93;;;1.30;;